createdAt,value
2023-03-07T00:01:33.231Z,84.95
2023-03-07T00:06:33.125Z,85.26
2023-03-07T00:11:33.106Z,85.36
2023-03-07T00:16:33.040Z,85.47
2023-03-07T00:21:33.326Z,85.68
2023-03-07T00:26:32.884Z,86.13
2023-03-07T00:31:32.868Z,86.30
2023-03-07T00:36:32.753Z,86.55
2023-03-07T00:41:33.641Z,86.65
2023-03-07T00:46:32.678Z,86.72
2023-03-07T00:51:32.575Z,86.93
2023-03-07T00:56:32.510Z,86.82
2023-03-07T01:01:32.455Z,87.03
2023-03-07T01:06:59.369Z,87.13
2023-03-07T01:11:51.695Z,87.24
2023-03-07T01:16:51.701Z,87.34
2023-03-07T01:21:51.594Z,87.34
2023-03-07T01:26:51.509Z,87.45
2023-03-07T01:31:51.494Z,87.55
2023-03-07T01:36:51.448Z,87.76
2023-03-07T01:41:51.332Z,87.86
2023-03-07T01:46:51.251Z,87.96
2023-03-07T01:51:51.229Z,87.96
2023-03-07T01:56:51.105Z,87.96
2023-03-07T02:01:51.057Z,87.96
2023-03-07T02:06:50.963Z,88.07
2023-03-07T02:11:50.944Z,88.07
2023-03-07T02:16:50.845Z,88.07
2023-03-07T02:21:50.806Z,88.17
2023-03-07T02:26:50.706Z,88.07
2023-03-07T02:31:50.664Z,87.96
2023-03-07T02:36:50.589Z,88.07
2023-03-07T02:41:50.586Z,88.07
2023-03-07T02:46:50.480Z,88.07
2023-03-07T02:51:50.413Z,87.92
2023-03-07T02:56:50.307Z,88.02
2023-03-07T03:01:50.332Z,88.02
2023-03-07T03:06:50.241Z,87.82
2023-03-07T03:11:50.185Z,87.40
2023-03-07T03:16:50.078Z,87.09
2023-03-07T03:21:50.041Z,87.40
2023-03-07T03:26:49.974Z,87.09
2023-03-07T03:31:49.903Z,86.95
2023-03-07T03:36:49.826Z,86.64
2023-03-07T03:41:49.788Z,86.33
2023-03-07T03:46:49.731Z,86.33
2023-03-07T03:51:49.669Z,85.60
2023-03-07T03:56:49.575Z,85.97
2023-03-07T04:01:49.618Z,86.22
2023-03-07T04:06:49.457Z,86.18
2023-03-07T04:11:49.391Z,86.08
2023-03-07T04:16:49.368Z,86.18
2023-03-07T04:21:49.283Z,86.33
2023-03-07T04:26:49.173Z,85.56
2023-03-07T04:31:49.222Z,85.56
2023-03-07T04:36:49.056Z,85.14
2023-03-07T04:41:49.001Z,85.14
2023-03-07T04:46:49.882Z,85.56
2023-03-07T04:51:48.889Z,85.35
2023-03-07T04:56:48.783Z,85.14
2023-03-07T05:01:48.729Z,85.04
2023-03-07T05:06:48.665Z,85.25
2023-03-07T05:11:48.632Z,84.94
2023-03-07T05:17:20.922Z,84.42
2023-03-07T05:22:13.340Z,84.31
2023-03-07T05:27:13.365Z,84.42
2023-03-07T05:32:13.327Z,84.42
2023-03-07T05:37:13.155Z,84.73
2023-03-07T05:42:13.098Z,85.04
2023-03-07T05:47:13.045Z,85.04
2023-03-07T05:52:12.956Z,84.73
2023-03-07T05:57:12.907Z,84.52
2023-03-07T06:02:12.838Z,84.83
2023-03-07T06:07:12.761Z,84.94
2023-03-07T06:12:12.692Z,84.98
2023-03-07T06:17:12.646Z,84.67
2023-03-07T06:22:12.580Z,84.63
2023-03-07T06:27:12.508Z,84.98
2023-03-07T06:32:12.485Z,84.77
2023-03-07T06:37:12.366Z,84.83
2023-03-07T06:42:12.319Z,84.21
2023-03-07T06:47:12.302Z,84.11
2023-03-07T06:52:12.146Z,83.69
2023-03-07T06:57:12.147Z,83.38
2023-03-07T07:02:12.129Z,83.17
2023-03-07T07:07:11.993Z,82.55
2023-03-07T07:12:11.920Z,82.82
2023-03-07T07:17:11.882Z,82.93
2023-03-07T07:22:11.851Z,83.03
2023-03-07T07:27:12.654Z,83.24
2023-03-07T07:32:11.857Z,82.58
2023-03-07T07:37:11.609Z,82.58
2023-03-07T07:42:11.575Z,82.27
2023-03-07T07:47:11.497Z,82.48
2023-03-07T07:52:11.511Z,81.71
2023-03-07T07:57:11.349Z,81.61
2023-03-07T08:02:11.359Z,80.99
2023-03-07T08:07:11.243Z,81.47
2023-03-07T08:12:11.164Z,80.43
2023-03-07T08:17:11.091Z,80.71
2023-03-07T08:22:11.186Z,80.08
2023-03-07T08:27:11.638Z,79.77
2023-03-07T08:32:12.130Z,78.39
2023-03-07T08:37:10.846Z,77.70
2023-03-07T08:42:10.772Z,76.43
2023-03-07T08:47:10.703Z,76.22
2023-03-07T08:52:10.679Z,76.01
2023-03-07T08:57:10.577Z,75.70
2023-03-07T09:02:10.514Z,76.05
2023-03-07T09:07:10.423Z,76.15
2023-03-07T09:12:10.370Z,76.05
2023-03-07T09:17:10.347Z,75.95
2023-03-07T09:22:10.225Z,76.32
2023-03-07T09:27:10.169Z,76.53
2023-03-07T09:32:10.137Z,76.22
2023-03-07T09:37:10.026Z,76.53
2023-03-07T09:42:09.952Z,77.33
2023-03-07T09:47:09.913Z,77.01
2023-03-07T09:52:10.795Z,76.29
2023-03-07T09:57:09.772Z,76.39
2023-03-07T10:02:09.665Z,76.70
2023-03-07T10:07:09.675Z,77.12
2023-03-07T10:12:09.550Z,75.70
2023-03-07T10:17:09.512Z,75.09
2023-03-07T10:22:09.449Z,74.63
2023-03-07T10:27:09.386Z,74.53
2023-03-07T10:32:09.464Z,75.19
2023-03-07T10:37:09.567Z,75.19
2023-03-07T10:42:09.160Z,75.70
2023-03-07T10:47:09.219Z,75.60
2023-03-07T10:52:09.027Z,75.39
2023-03-07T10:57:08.963Z,75.60
2023-03-07T11:02:08.896Z,74.98
2023-03-07T11:07:08.832Z,75.09
2023-03-07T11:12:08.753Z,75.09
2023-03-07T11:17:08.700Z,75.70
2023-03-07T11:22:08.633Z,75.49
2023-03-07T11:27:08.657Z,75.67
2023-03-07T11:32:08.528Z,74.40
2023-03-07T11:37:08.773Z,73.77
2023-03-07T11:42:08.886Z,73.02
2023-03-07T11:47:08.335Z,73.95
2023-03-07T11:52:08.222Z,74.05
2023-03-07T11:57:08.177Z,73.85
2023-03-07T12:02:08.094Z,73.85
2023-03-07T12:07:08.042Z,73.64
2023-03-07T12:12:07.957Z,73.68
2023-03-07T12:17:07.918Z,73.88
2023-03-07T12:22:07.854Z,73.64
2023-03-07T12:27:07.787Z,74.05
2023-03-07T12:32:07.916Z,73.74
2023-03-07T12:37:07.687Z,73.95
2023-03-07T12:42:07.534Z,73.64
2023-03-07T12:47:07.531Z,74.57
2023-03-07T12:52:07.492Z,73.74
2023-03-07T12:57:07.404Z,72.99
2023-03-07T13:02:07.295Z,72.58
2023-03-07T13:07:07.283Z,71.95
2023-03-07T13:12:07.179Z,71.34
2023-03-07T13:17:07.121Z,72.37
2023-03-07T13:22:07.071Z,70.62
2023-03-07T13:27:06.992Z,70.62
2023-03-07T13:32:06.926Z,70.00
2023-03-07T13:37:06.862Z,69.79
2023-03-07T13:42:06.771Z,68.55
2023-03-07T13:47:06.733Z,68.45
2023-03-07T13:52:06.770Z,68.45
2023-03-07T13:57:06.578Z,67.42
2023-03-07T14:02:06.537Z,67.49
2023-03-07T14:07:06.480Z,67.60
2023-03-07T14:12:06.426Z,67.36
2023-03-07T14:17:06.338Z,66.94
2023-03-07T14:22:06.298Z,67.57
2023-03-07T14:27:06.222Z,67.29
2023-03-07T14:32:06.175Z,67.29
2023-03-07T14:37:06.080Z,67.90
2023-03-07T14:42:06.026Z,67.63
2023-03-07T14:47:05.955Z,67.63
2023-03-07T14:52:05.952Z,68.55
2023-03-07T14:57:05.827Z,68.55
2023-03-07T15:02:06.576Z,68.86
2023-03-07T15:07:05.759Z,69.38
2023-03-07T15:12:05.618Z,69.59
2023-03-07T15:17:05.522Z,69.62
2023-03-07T15:22:05.529Z,70.13
2023-03-07T15:27:05.423Z,70.44
2023-03-07T15:32:05.352Z,71.06
2023-03-07T15:37:05.288Z,71.26
2023-03-07T15:42:05.231Z,71.78
2023-03-07T15:47:05.162Z,71.89
2023-03-07T15:52:05.044Z,71.68
2023-03-07T15:57:05.090Z,72.19
2023-03-07T16:02:04.974Z,72.40
2023-03-07T16:07:04.866Z,72.85
2023-03-07T16:12:04.814Z,72.64
2023-03-07T16:17:04.791Z,72.85
2023-03-07T16:22:04.660Z,73.47
2023-03-07T16:27:04.614Z,73.77
2023-03-07T16:32:04.797Z,74.08
2023-03-07T16:37:19.474Z,74.50
2023-03-07T16:42:04.420Z,75.36
2023-03-07T16:47:04.417Z,76.70
2023-03-07T16:52:06.752Z,82.42
2023-03-07T16:57:04.220Z,90.80
2023-03-07T17:02:04.173Z,93.31
2023-03-07T17:07:05.152Z,95.22
2023-03-07T17:12:04.006Z,95.72
2023-03-07T17:17:04.075Z,96.70
2023-03-07T17:22:03.977Z,97.12
2023-03-07T17:27:03.824Z,96.58
2023-03-07T17:32:03.896Z,97.35
2023-03-07T17:37:03.702Z,97.77
2023-03-07T17:42:03.708Z,97.50
2023-03-07T17:47:03.635Z,97.30
2023-03-07T17:52:03.538Z,97.13
2023-03-07T17:57:03.512Z,97.65
2023-03-07T18:02:03.461Z,98.48
2023-03-07T18:07:03.366Z,98.80
2023-03-07T18:12:03.289Z,99.05
2023-03-07T18:17:03.229Z,99.26
2023-03-07T18:22:03.193Z,99.42
2023-03-07T18:27:03.070Z,99.05
2023-03-07T18:32:03.125Z,98.74
2023-03-07T18:37:03.907Z,98.68
2023-03-07T18:42:02.870Z,98.78
2023-03-07T18:47:02.964Z,99.30
2023-03-07T18:52:02.760Z,99.30
2023-03-07T18:57:02.677Z,98.88
2023-03-07T19:02:02.686Z,98.78
2023-03-07T19:07:02.582Z,98.10
2023-03-07T19:12:02.492Z,98.31
2023-03-07T19:17:02.471Z,99.66
2023-03-07T19:22:02.386Z,99.35
2023-03-07T19:27:02.306Z,98.97
2023-03-07T19:32:02.334Z,99.60
2023-03-07T19:37:03.077Z,99.02
2023-03-07T19:42:02.128Z,99.50
2023-03-07T19:47:02.017Z,99.40
2023-03-07T19:52:01.986Z,98.87
2023-03-07T19:57:01.966Z,98.60
2023-03-07T20:02:01.906Z,98.60
2023-03-07T20:07:01.784Z,99.13
2023-03-07T20:12:01.744Z,99.23
2023-03-07T20:17:01.679Z,99.85
2023-03-07T20:22:01.649Z,99.75
2023-03-07T20:27:01.537Z,99.65
2023-03-07T20:32:01.504Z,99.48
2023-03-07T20:37:01.373Z,99.48
2023-03-07T20:42:01.352Z,99.59
2023-03-07T20:47:01.313Z,99.80
2023-03-07T20:52:01.227Z,99.48
2023-03-07T20:57:01.196Z,99.80
2023-03-07T21:02:01.186Z,99.99
2023-03-07T21:07:01.003Z,99.99
2023-03-07T21:12:00.968Z,99.99
2023-03-07T21:17:00.893Z,99.99
2023-03-07T21:22:00.832Z,99.99
2023-03-07T21:27:00.762Z,99.99
2023-03-07T21:32:00.714Z,99.99
2023-03-07T21:37:00.642Z,99.99
2023-03-07T21:42:00.541Z,99.99
2023-03-07T21:47:00.495Z,99.99
2023-03-07T21:52:00.435Z,99.99
2023-03-07T21:57:00.351Z,99.99
2023-03-07T22:02:00.361Z,99.99
2023-03-07T22:07:00.239Z,99.99
2023-03-07T22:12:00.244Z,99.99
2023-03-07T22:17:00.227Z,99.99
2023-03-07T22:22:00.077Z,99.99
2023-03-07T22:26:59.988Z,99.99
2023-03-07T22:31:59.971Z,99.99
2023-03-07T22:36:59.858Z,99.99
2023-03-07T22:41:59.774Z,99.99
2023-03-07T22:46:59.798Z,99.99
2023-03-07T22:51:59.647Z,99.99
2023-03-07T22:56:59.603Z,99.99
2023-03-07T23:01:59.548Z,99.99
2023-03-07T23:06:59.460Z,99.99
2023-03-07T23:11:59.367Z,99.99
2023-03-07T23:16:59.370Z,99.99
2023-03-07T23:21:59.272Z,99.99
2023-03-07T23:26:59.173Z,99.99
2023-03-07T23:31:59.143Z,99.99
2023-03-07T23:36:59.127Z,99.99
2023-03-07T23:41:59.011Z,99.99
2023-03-07T23:46:58.993Z,99.99
2023-03-07T23:51:58.866Z,99.99
2023-03-07T23:56:58.836Z,99.99
